sensor_id;sensor_type;location;lat;lon;timestamp;P1;durP1;ratioP1;P2;durP2;ratioP2
8407;SDS011;4241;48.452;9.216;2023-07-20T00:01:32;486.80;;;239.00;;
8407;SDS011;4241;48.452;9.216;2023-07-20T00:04:00;486.90;;;243.80;;
8407;SDS011;4241;48.452;9.216;2023-07-20T00:06:27;489.00;;;243.23;;
8407;SDS011;4241;48.452;9.216;2023-07-20T00:08:54;487.63;;;242.53;;
8407;SDS011;4241;48.452;9.216;2023-07-20T00:11:21;487.00;;;242.23;;
8407;SDS011;4241;48.452;9.216;2023-07-20T00:13:49;488.00;;;241.83;;
8407;SDS011;4241;48.452;9.216;2023-07-20T00:16:16;488.50;;;241.17;;
8407;SDS011;4241;48.452;9.216;2023-07-20T00:18:43;487.53;;;243.47;;
8407;SDS011;4241;48.452;9.216;2023-07-20T00:21:10;486.73;;;242.50;;
8407;SDS011;4241;48.452;9.216;2023-07-20T00:23:37;486.60;;;243.70;;
8407;SDS011;4241;48.452;9.216;2023-07-20T00:26:04;486.30;;;240.13;;
8407;SDS011;4241;48.452;9.216;2023-07-20T00:28:31;485.70;;;237.97;;
8407;SDS011;4241;48.452;9.216;2023-07-20T00:31:00;486.63;;;235.87;;
8407;SDS011;4241;48.452;9.216;2023-07-20T00:33:28;484.03;;;231.33;;
8407;SDS011;4241;48.452;9.216;2023-07-20T00:35:54;484.20;;;233.83;;
8407;SDS011;4241;48.452;9.216;2023-07-20T00:38:22;485.13;;;235.80;;
8407;SDS011;4241;48.452;9.216;2023-07-20T00:40:48;483.20;;;231.67;;
8407;SDS011;4241;48.452;9.216;2023-07-20T00:43:15;486.60;;;236.30;;
8407;SDS011;4241;48.452;9.216;2023-07-20T00:45:42;489.07;;;242.17;;
8407;SDS011;4241;48.452;9.216;2023-07-20T00:48:12;485.70;;;237.10;;
8407;SDS011;4241;48.452;9.216;2023-07-20T00:50:40;485.83;;;238.30;;
8407;SDS011;4241;48.452;9.216;2023-07-20T00:53:07;485.57;;;236.50;;
8407;SDS011;4241;48.452;9.216;2023-07-20T00:55:35;489.27;;;237.57;;
8407;SDS011;4241;48.452;9.216;2023-07-20T00:58:02;485.67;;;235.07;;
8407;SDS011;4241;48.452;9.216;2023-07-20T01:00:29;483.67;;;229.87;;
8407;SDS011;4241;48.452;9.216;2023-07-20T01:02:57;485.47;;;232.60;;
8407;SDS011;4241;48.452;9.216;2023-07-20T01:05:26;488.27;;;234.03;;
8407;SDS011;4241;48.452;9.216;2023-07-20T01:07:59;503.37;;;252.23;;
8407;SDS011;4241;48.452;9.216;2023-07-20T01:10:31;481.73;;;227.57;;
8407;SDS011;4241;48.452;9.216;2023-07-20T01:13:04;483.03;;;228.20;;
8407;SDS011;4241;48.452;9.216;2023-07-20T01:15:33;488.60;;;235.40;;
8407;SDS011;4241;48.452;9.216;2023-07-20T01:18:00;484.57;;;233.33;;
8407;SDS011;4241;48.452;9.216;2023-07-20T01:20:31;484.10;;;230.80;;
8407;SDS011;4241;48.452;9.216;2023-07-20T01:25:57;484.33;;;231.97;;
8407;SDS011;4241;48.452;9.216;2023-07-20T01:28:37;483.27;;;227.23;;
8407;SDS011;4241;48.452;9.216;2023-07-20T01:31:26;483.37;;;228.27;;
8407;SDS011;4241;48.452;9.216;2023-07-20T01:33:56;483.27;;;226.43;;
8407;SDS011;4241;48.452;9.216;2023-07-20T01:36:27;486.83;;;233.40;;
8407;SDS011;4241;48.452;9.216;2023-07-20T01:38:56;486.03;;;232.60;;
8407;SDS011;4241;48.452;9.216;2023-07-20T01:41:23;486.80;;;233.97;;
8407;SDS011;4241;48.452;9.216;2023-07-20T01:43:50;485.13;;;231.67;;
8407;SDS011;4241;48.452;9.216;2023-07-20T01:46:17;484.90;;;230.93;;
8407;SDS011;4241;48.452;9.216;2023-07-20T01:48:45;486.80;;;233.10;;
8407;SDS011;4241;48.452;9.216;2023-07-20T01:51:12;485.30;;;229.73;;
8407;SDS011;4241;48.452;9.216;2023-07-20T01:53:39;482.97;;;226.73;;
8407;SDS011;4241;48.452;9.216;2023-07-20T01:56:06;485.17;;;232.80;;
8407;SDS011;4241;48.452;9.216;2023-07-20T01:58:33;484.57;;;230.17;;
8407;SDS011;4241;48.452;9.216;2023-07-20T02:01:00;483.83;;;228.50;;
8407;SDS011;4241;48.452;9.216;2023-07-20T02:03:28;483.30;;;225.93;;
8407;SDS011;4241;48.452;9.216;2023-07-20T02:05:56;481.73;;;224.20;;
8407;SDS011;4241;48.452;9.216;2023-07-20T02:08:24;480.73;;;220.73;;
8407;SDS011;4241;48.452;9.216;2023-07-20T02:10:51;481.70;;;225.47;;
8407;SDS011;4241;48.452;9.216;2023-07-20T02:13:18;481.97;;;221.73;;
8407;SDS011;4241;48.452;9.216;2023-07-20T02:15:44;482.93;;;223.27;;
8407;SDS011;4241;48.452;9.216;2023-07-20T02:18:12;481.73;;;223.50;;
8407;SDS011;4241;48.452;9.216;2023-07-20T02:20:40;484.63;;;228.43;;
8407;SDS011;4241;48.452;9.216;2023-07-20T02:23:08;485.37;;;229.37;;
8407;SDS011;4241;48.452;9.216;2023-07-20T02:25:38;486.93;;;231.67;;
8407;SDS011;4241;48.452;9.216;2023-07-20T02:28:06;482.27;;;225.33;;
8407;SDS011;4241;48.452;9.216;2023-07-20T02:30:34;485.43;;;227.40;;
8407;SDS011;4241;48.452;9.216;2023-07-20T02:33:03;484.73;;;226.20;;
8407;SDS011;4241;48.452;9.216;2023-07-20T02:35:31;492.03;;;233.37;;
8407;SDS011;4241;48.452;9.216;2023-07-20T02:37:58;481.90;;;223.57;;
8407;SDS011;4241;48.452;9.216;2023-07-20T02:40:26;483.13;;;226.50;;
8407;SDS011;4241;48.452;9.216;2023-07-20T02:42:53;483.77;;;224.70;;
8407;SDS011;4241;48.452;9.216;2023-07-20T02:45:20;486.63;;;226.67;;
8407;SDS011;4241;48.452;9.216;2023-07-20T02:47:47;482.17;;;221.13;;
8407;SDS011;4241;48.452;9.216;2023-07-20T02:50:14;482.87;;;223.87;;
8407;SDS011;4241;48.452;9.216;2023-07-20T02:52:41;480.90;;;223.13;;
8407;SDS011;4241;48.452;9.216;2023-07-20T02:55:09;481.93;;;219.23;;
8407;SDS011;4241;48.452;9.216;2023-07-20T02:57:37;482.77;;;222.33;;
8407;SDS011;4241;48.452;9.216;2023-07-20T03:00:04;483.13;;;221.97;;
8407;SDS011;4241;48.452;9.216;2023-07-20T03:02:32;482.50;;;222.27;;
8407;SDS011;4241;48.452;9.216;2023-07-20T03:04:59;483.33;;;223.87;;
8407;SDS011;4241;48.452;9.216;2023-07-20T03:07:27;480.03;;;219.13;;
8407;SDS011;4241;48.452;9.216;2023-07-20T03:09:54;482.83;;;222.90;;
8407;SDS011;4241;48.452;9.216;2023-07-20T03:12:21;483.40;;;220.77;;
8407;SDS011;4241;48.452;9.216;2023-07-20T03:14:50;480.97;;;218.57;;
8407;SDS011;4241;48.452;9.216;2023-07-20T03:17:17;479.40;;;214.77;;
8407;SDS011;4241;48.452;9.216;2023-07-20T03:19:45;482.43;;;218.70;;
8407;SDS011;4241;48.452;9.216;2023-07-20T03:22:12;478.67;;;212.23;;
8407;SDS011;4241;48.452;9.216;2023-07-20T03:24:39;481.83;;;218.13;;
8407;SDS011;4241;48.452;9.216;2023-07-20T03:27:06;481.27;;;217.03;;
8407;SDS011;4241;48.452;9.216;2023-07-20T03:29:34;480.00;;;214.37;;
8407;SDS011;4241;48.452;9.216;2023-07-20T03:32:03;478.50;;;210.00;;
8407;SDS011;4241;48.452;9.216;2023-07-20T03:34:30;478.43;;;210.37;;
8407;SDS011;4241;48.452;9.216;2023-07-20T03:36:57;477.53;;;211.83;;
8407;SDS011;4241;48.452;9.216;2023-07-20T03:39:25;479.57;;;212.27;;
8407;SDS011;4241;48.452;9.216;2023-07-20T03:41:52;479.20;;;211.13;;
8407;SDS011;4241;48.452;9.216;2023-07-20T03:44:19;478.47;;;209.43;;
8407;SDS011;4241;48.452;9.216;2023-07-20T03:46:46;480.63;;;214.67;;
8407;SDS011;4241;48.452;9.216;2023-07-20T03:49:15;478.80;;;211.40;;
8407;SDS011;4241;48.452;9.216;2023-07-20T03:51:41;480.27;;;212.00;;
8407;SDS011;4241;48.452;9.216;2023-07-20T03:54:08;479.97;;;213.27;;
8407;SDS011;4241;48.452;9.216;2023-07-20T03:56:35;481.40;;;214.27;;
8407;SDS011;4241;48.452;9.216;2023-07-20T03:59:02;477.93;;;210.87;;
8407;SDS011;4241;48.452;9.216;2023-07-20T04:01:29;480.07;;;214.53;;
8407;SDS011;4241;48.452;9.216;2023-07-20T04:04:01;479.83;;;212.20;;
8407;SDS011;4241;48.452;9.216;2023-07-20T04:06:30;479.93;;;209.47;;
8407;SDS011;4241;48.452;9.216;2023-07-20T04:08:57;480.07;;;210.50;;
8407;SDS011;4241;48.452;9.216;2023-07-20T04:11:24;477.20;;;207.93;;
8407;SDS011;4241;48.452;9.216;2023-07-20T04:13:50;476.70;;;206.87;;
8407;SDS011;4241;48.452;9.216;2023-07-20T04:16:18;477.67;;;206.53;;
8407;SDS011;4241;48.452;9.216;2023-07-20T04:18:45;476.87;;;205.33;;
8407;SDS011;4241;48.452;9.216;2023-07-20T04:21:12;477.97;;;207.77;;
8407;SDS011;4241;48.452;9.216;2023-07-20T04:23:41;476.40;;;206.37;;
8407;SDS011;4241;48.452;9.216;2023-07-20T04:26:07;477.73;;;209.40;;
8407;SDS011;4241;48.452;9.216;2023-07-20T04:28:37;477.60;;;207.57;;
8407;SDS011;4241;48.452;9.216;2023-07-20T04:31:10;480.03;;;212.27;;
8407;SDS011;4241;48.452;9.216;2023-07-20T04:33:38;480.10;;;214.97;;
8407;SDS011;4241;48.452;9.216;2023-07-20T04:36:05;478.30;;;212.17;;
8407;SDS011;4241;48.452;9.216;2023-07-20T04:38:32;476.10;;;206.57;;
8407;SDS011;4241;48.452;9.216;2023-07-20T04:41:00;479.90;;;215.97;;
8407;SDS011;4241;48.452;9.216;2023-07-20T04:43:28;479.27;;;212.47;;
8407;SDS011;4241;48.452;9.216;2023-07-20T04:45:56;479.13;;;208.30;;
8407;SDS011;4241;48.452;9.216;2023-07-20T04:48:23;479.57;;;209.43;;
8407;SDS011;4241;48.452;9.216;2023-07-20T04:50:50;478.17;;;209.63;;
8407;SDS011;4241;48.452;9.216;2023-07-20T04:53:17;476.97;;;208.30;;
8407;SDS011;4241;48.452;9.216;2023-07-20T04:55:47;478.27;;;212.00;;
8407;SDS011;4241;48.452;9.216;2023-07-20T04:58:18;476.87;;;209.30;;
8407;SDS011;4241;48.452;9.216;2023-07-20T05:00:45;476.83;;;209.87;;
8407;SDS011;4241;48.452;9.216;2023-07-20T05:03:13;476.20;;;205.43;;
8407;SDS011;4241;48.452;9.216;2023-07-20T05:05:40;479.33;;;211.53;;
8407;SDS011;4241;48.452;9.216;2023-07-20T05:08:07;497.50;;;233.97;;
8407;SDS011;4241;48.452;9.216;2023-07-20T05:10:34;484.20;;;219.80;;
8407;SDS011;4241;48.452;9.216;2023-07-20T05:13:01;479.50;;;214.43;;
8407;SDS011;4241;48.452;9.216;2023-07-20T05:15:30;487.53;;;227.13;;
8407;SDS011;4241;48.452;9.216;2023-07-20T05:17:59;478.97;;;213.93;;
8407;SDS011;4241;48.452;9.216;2023-07-20T05:20:26;480.53;;;218.83;;
8407;SDS011;4241;48.452;9.216;2023-07-20T05:22:53;479.20;;;217.27;;
8407;SDS011;4241;48.452;9.216;2023-07-20T05:25:20;482.33;;;222.00;;
8407;SDS011;4241;48.452;9.216;2023-07-20T05:27:47;479.97;;;218.90;;
8407;SDS011;4241;48.452;9.216;2023-07-20T05:30:15;481.33;;;221.80;;
8407;SDS011;4241;48.452;9.216;2023-07-20T05:32:44;483.17;;;223.47;;
8407;SDS011;4241;48.452;9.216;2023-07-20T05:35:12;482.93;;;224.87;;
8407;SDS011;4241;48.452;9.216;2023-07-20T05:37:40;480.70;;;221.20;;
8407;SDS011;4241;48.452;9.216;2023-07-20T05:40:08;479.53;;;221.13;;
8407;SDS011;4241;48.452;9.216;2023-07-20T05:42:37;482.20;;;223.23;;
8407;SDS011;4241;48.452;9.216;2023-07-20T05:45:04;482.87;;;227.47;;
8407;SDS011;4241;48.452;9.216;2023-07-20T05:47:32;484.07;;;228.60;;
8407;SDS011;4241;48.452;9.216;2023-07-20T05:50:00;482.83;;;225.27;;
8407;SDS011;4241;48.452;9.216;2023-07-20T05:52:28;482.27;;;223.13;;
8407;SDS011;4241;48.452;9.216;2023-07-20T05:54:55;480.20;;;224.13;;
8407;SDS011;4241;48.452;9.216;2023-07-20T05:57:22;481.43;;;225.07;;
8407;SDS011;4241;48.452;9.216;2023-07-20T05:59:49;481.50;;;224.97;;
8407;SDS011;4241;48.452;9.216;2023-07-20T06:02:16;484.13;;;228.53;;
8407;SDS011;4241;48.452;9.216;2023-07-20T06:04:44;482.97;;;225.50;;
8407;SDS011;4241;48.452;9.216;2023-07-20T06:07:12;482.97;;;229.97;;
8407;SDS011;4241;48.452;9.216;2023-07-20T06:09:39;481.07;;;230.37;;
8407;SDS011;4241;48.452;9.216;2023-07-20T06:12:07;484.50;;;231.93;;
8407;SDS011;4241;48.452;9.216;2023-07-20T06:14:34;482.53;;;231.47;;
8407;SDS011;4241;48.452;9.216;2023-07-20T06:17:01;483.47;;;232.80;;
8407;SDS011;4241;48.452;9.216;2023-07-20T06:19:28;482.83;;;233.73;;
8407;SDS011;4241;48.452;9.216;2023-07-20T06:21:55;482.60;;;232.17;;
8407;SDS011;4241;48.452;9.216;2023-07-20T06:24:23;483.77;;;233.97;;
8407;SDS011;4241;48.452;9.216;2023-07-20T06:26:50;488.00;;;241.90;;
8407;SDS011;4241;48.452;9.216;2023-07-20T06:29:16;484.53;;;235.57;;
8407;SDS011;4241;48.452;9.216;2023-07-20T06:31:44;494.50;;;243.60;;
8407;SDS011;4241;48.452;9.216;2023-07-20T06:34:11;485.57;;;238.17;;
8407;SDS011;4241;48.452;9.216;2023-07-20T06:36:38;484.77;;;237.67;;
8407;SDS011;4241;48.452;9.216;2023-07-20T06:39:04;484.93;;;236.47;;
8407;SDS011;4241;48.452;9.216;2023-07-20T06:41:33;485.57;;;238.90;;
8407;SDS011;4241;48.452;9.216;2023-07-20T06:44:00;486.03;;;240.83;;
8407;SDS011;4241;48.452;9.216;2023-07-20T06:46:27;485.47;;;238.63;;
8407;SDS011;4241;48.452;9.216;2023-07-20T06:48:54;485.73;;;237.63;;
8407;SDS011;4241;48.452;9.216;2023-07-20T06:51:22;485.40;;;240.93;;
8407;SDS011;4241;48.452;9.216;2023-07-20T06:53:48;485.87;;;243.77;;
8407;SDS011;4241;48.452;9.216;2023-07-20T06:56:15;485.20;;;239.77;;
8407;SDS011;4241;48.452;9.216;2023-07-20T06:58:44;487.77;;;247.77;;
8407;SDS011;4241;48.452;9.216;2023-07-20T07:01:11;486.80;;;246.50;;
8407;SDS011;4241;48.452;9.216;2023-07-20T07:03:37;489.27;;;252.53;;
8407;SDS011;4241;48.452;9.216;2023-07-20T07:06:04;488.13;;;253.80;;
8407;SDS011;4241;48.452;9.216;2023-07-20T07:08:31;489.13;;;258.40;;
8407;SDS011;4241;48.452;9.216;2023-07-20T07:10:58;491.63;;;263.97;;
8407;SDS011;4241;48.452;9.216;2023-07-20T07:13:26;490.17;;;262.27;;
8407;SDS011;4241;48.452;9.216;2023-07-20T07:15:54;492.83;;;270.13;;
8407;SDS011;4241;48.452;9.216;2023-07-20T07:18:20;493.10;;;268.40;;
8407;SDS011;4241;48.452;9.216;2023-07-20T07:20:52;491.90;;;269.70;;
8407;SDS011;4241;48.452;9.216;2023-07-20T07:23:19;492.80;;;272.47;;
8407;SDS011;4241;48.452;9.216;2023-07-20T07:25:46;493.47;;;274.97;;
8407;SDS011;4241;48.452;9.216;2023-07-20T07:28:13;495.73;;;281.57;;
8407;SDS011;4241;48.452;9.216;2023-07-20T07:30:40;494.67;;;279.60;;
8407;SDS011;4241;48.452;9.216;2023-07-20T07:33:08;496.00;;;284.73;;
8407;SDS011;4241;48.452;9.216;2023-07-20T07:35:36;499.87;;;293.97;;
8407;SDS011;4241;48.452;9.216;2023-07-20T07:38:03;495.73;;;288.83;;
8407;SDS011;4241;48.452;9.216;2023-07-20T07:40:30;496.03;;;291.00;;
8407;SDS011;4241;48.452;9.216;2023-07-20T07:42:56;496.93;;;290.17;;
8407;SDS011;4241;48.452;9.216;2023-07-20T07:45:23;504.13;;;293.90;;
8407;SDS011;4241;48.452;9.216;2023-07-20T07:47:50;497.90;;;295.47;;
8407;SDS011;4241;48.452;9.216;2023-07-20T07:50:18;496.37;;;290.30;;
8407;SDS011;4241;48.452;9.216;2023-07-20T07:52:45;495.87;;;284.97;;
8407;SDS011;4241;48.452;9.216;2023-07-20T07:55:12;496.93;;;291.60;;
8407;SDS011;4241;48.452;9.216;2023-07-20T07:57:41;497.30;;;292.93;;
8407;SDS011;4241;48.452;9.216;2023-07-20T08:00:09;496.63;;;290.53;;
8407;SDS011;4241;48.452;9.216;2023-07-20T08:02:39;498.40;;;295.93;;
8407;SDS011;4241;48.452;9.216;2023-07-20T08:05:08;500.13;;;298.63;;
8407;SDS011;4241;48.452;9.216;2023-07-20T08:07:36;497.23;;;299.07;;
8407;SDS011;4241;48.452;9.216;2023-07-20T08:10:03;499.27;;;300.47;;
8407;SDS011;4241;48.452;9.216;2023-07-20T08:12:31;502.03;;;305.07;;
8407;SDS011;4241;48.452;9.216;2023-07-20T08:14:58;500.47;;;303.53;;
8407;SDS011;4241;48.452;9.216;2023-07-20T08:17:25;501.27;;;307.40;;
8407;SDS011;4241;48.452;9.216;2023-07-20T08:19:52;500.70;;;304.93;;
8407;SDS011;4241;48.452;9.216;2023-07-20T08:22:19;503.37;;;312.37;;
8407;SDS011;4241;48.452;9.216;2023-07-20T08:24:47;502.27;;;309.47;;
8407;SDS011;4241;48.452;9.216;2023-07-20T08:27:14;502.23;;;316.63;;
8407;SDS011;4241;48.452;9.216;2023-07-20T08:29:41;501.60;;;318.87;;
8407;SDS011;4241;48.452;9.216;2023-07-20T08:32:08;504.07;;;324.27;;
8407;SDS011;4241;48.452;9.216;2023-07-20T08:34:35;503.63;;;326.57;;
8407;SDS011;4241;48.452;9.216;2023-07-20T08:37:02;507.03;;;330.47;;
8407;SDS011;4241;48.452;9.216;2023-07-20T08:39:29;508.63;;;335.47;;
8407;SDS011;4241;48.452;9.216;2023-07-20T08:41:58;515.33;;;347.43;;
8407;SDS011;4241;48.452;9.216;2023-07-20T08:44:29;504.57;;;334.27;;
8407;SDS011;4241;48.452;9.216;2023-07-20T08:46:58;511.53;;;340.20;;
8407;SDS011;4241;48.452;9.216;2023-07-20T08:49:27;506.53;;;339.53;;
8407;SDS011;4241;48.452;9.216;2023-07-20T08:51:54;507.70;;;341.20;;
8407;SDS011;4241;48.452;9.216;2023-07-20T08:54:22;509.93;;;344.77;;
8407;SDS011;4241;48.452;9.216;2023-07-20T08:56:49;506.50;;;331.90;;
8407;SDS011;4241;48.452;9.216;2023-07-20T08:59:18;508.50;;;334.77;;
8407;SDS011;4241;48.452;9.216;2023-07-20T09:01:46;504.57;;;330.77;;
8407;SDS011;4241;48.452;9.216;2023-07-20T09:04:14;505.00;;;331.47;;
8407;SDS011;4241;48.452;9.216;2023-07-20T09:06:41;504.97;;;334.23;;
8407;SDS011;4241;48.452;9.216;2023-07-20T09:09:08;506.93;;;336.57;;
8407;SDS011;4241;48.452;9.216;2023-07-20T09:11:36;508.17;;;338.43;;
8407;SDS011;4241;48.452;9.216;2023-07-20T09:14:03;509.97;;;338.43;;
8407;SDS011;4241;48.452;9.216;2023-07-20T09:16:32;513.83;;;346.67;;
8407;SDS011;4241;48.452;9.216;2023-07-20T09:19:14;507.80;;;338.00;;
8407;SDS011;4241;48.452;9.216;2023-07-20T09:21:43;503.47;;;331.80;;
8407;SDS011;4241;48.452;9.216;2023-07-20T09:24:11;506.53;;;336.63;;
8407;SDS011;4241;48.452;9.216;2023-07-20T09:26:40;507.57;;;332.97;;
8407;SDS011;4241;48.452;9.216;2023-07-20T09:29:08;503.67;;;333.23;;
8407;SDS011;4241;48.452;9.216;2023-07-20T09:31:36;507.10;;;338.60;;
8407;SDS011;4241;48.452;9.216;2023-07-20T09:34:04;506.20;;;341.90;;
8407;SDS011;4241;48.452;9.216;2023-07-20T09:36:32;505.40;;;339.87;;
8407;SDS011;4241;48.452;9.216;2023-07-20T09:39:00;504.37;;;337.67;;
8407;SDS011;4241;48.452;9.216;2023-07-20T09:41:28;508.63;;;353.13;;
8407;SDS011;4241;48.452;9.216;2023-07-20T09:43:56;506.97;;;350.80;;
8407;SDS011;4241;48.452;9.216;2023-07-20T09:46:23;507.83;;;354.90;;
8407;SDS011;4241;48.452;9.216;2023-07-20T09:48:53;510.80;;;360.73;;
8407;SDS011;4241;48.452;9.216;2023-07-20T09:51:21;507.40;;;353.80;;
8407;SDS011;4241;48.452;9.216;2023-07-20T09:53:55;509.50;;;359.63;;
8407;SDS011;4241;48.452;9.216;2023-07-20T09:56:22;509.23;;;361.20;;
8407;SDS011;4241;48.452;9.216;2023-07-20T09:58:51;510.33;;;368.63;;
8407;SDS011;4241;48.452;9.216;2023-07-20T10:01:18;510.40;;;367.67;;
8407;SDS011;4241;48.452;9.216;2023-07-20T10:03:47;513.13;;;370.43;;
8407;SDS011;4241;48.452;9.216;2023-07-20T10:06:20;509.13;;;357.97;;
8407;SDS011;4241;48.452;9.216;2023-07-20T10:08:52;510.43;;;355.87;;
8407;SDS011;4241;48.452;9.216;2023-07-20T10:11:21;506.63;;;348.97;;
8407;SDS011;4241;48.452;9.216;2023-07-20T10:13:53;508.43;;;352.90;;
8407;SDS011;4241;48.452;9.216;2023-07-20T10:16:32;508.73;;;345.47;;
8407;SDS011;4241;48.452;9.216;2023-07-20T10:19:03;501.57;;;330.57;;
8407;SDS011;4241;48.452;9.216;2023-07-20T10:21:35;502.83;;;328.63;;
8407;SDS011;4241;48.452;9.216;2023-07-20T10:24:06;503.93;;;329.60;;
8407;SDS011;4241;48.452;9.216;2023-07-20T10:26:33;503.53;;;329.47;;
8407;SDS011;4241;48.452;9.216;2023-07-20T10:29:01;504.83;;;331.13;;
8407;SDS011;4241;48.452;9.216;2023-07-20T10:31:28;503.83;;;328.40;;
8407;SDS011;4241;48.452;9.216;2023-07-20T10:33:56;506.50;;;328.30;;
8407;SDS011;4241;48.452;9.216;2023-07-20T10:36:27;503.63;;;323.50;;
8407;SDS011;4241;48.452;9.216;2023-07-20T10:38:55;500.90;;;318.47;;
8407;SDS011;4241;48.452;9.216;2023-07-20T10:41:27;507.83;;;335.20;;
8407;SDS011;4241;48.452;9.216;2023-07-20T10:43:58;508.47;;;335.60;;
8407;SDS011;4241;48.452;9.216;2023-07-20T10:46:33;507.30;;;336.97;;
8407;SDS011;4241;48.452;9.216;2023-07-20T10:49:01;507.93;;;343.80;;
8407;SDS011;4241;48.452;9.216;2023-07-20T10:51:30;508.00;;;344.90;;
8407;SDS011;4241;48.452;9.216;2023-07-20T10:54:07;509.80;;;352.20;;
8407;SDS011;4241;48.452;9.216;2023-07-20T10:56:34;506.80;;;347.10;;
8407;SDS011;4241;48.452;9.216;2023-07-20T10:59:01;507.23;;;348.87;;
8407;SDS011;4241;48.452;9.216;2023-07-20T11:01:28;507.57;;;346.03;;
8407;SDS011;4241;48.452;9.216;2023-07-20T11:03:57;510.60;;;349.03;;
8407;SDS011;4241;48.452;9.216;2023-07-20T11:06:32;506.43;;;347.80;;
8407;SDS011;4241;48.452;9.216;2023-07-20T11:09:03;507.20;;;354.43;;
8407;SDS011;4241;48.452;9.216;2023-07-20T11:11:36;508.60;;;356.53;;
8407;SDS011;4241;48.452;9.216;2023-07-20T11:14:04;507.20;;;356.83;;
8407;SDS011;4241;48.452;9.216;2023-07-20T11:16:36;511.13;;;364.60;;
8407;SDS011;4241;48.452;9.216;2023-07-20T11:19:04;509.37;;;367.90;;
8407;SDS011;4241;48.452;9.216;2023-07-20T11:21:35;509.37;;;367.30;;
8407;SDS011;4241;48.452;9.216;2023-07-20T11:24:04;508.00;;;362.93;;
8407;SDS011;4241;48.452;9.216;2023-07-20T11:26:41;510.20;;;366.60;;
8407;SDS011;4241;48.452;9.216;2023-07-20T11:29:11;511.33;;;371.03;;
8407;SDS011;4241;48.452;9.216;2023-07-20T11:31:39;510.63;;;368.90;;
8407;SDS011;4241;48.452;9.216;2023-07-20T11:34:07;508.57;;;368.10;;
8407;SDS011;4241;48.452;9.216;2023-07-20T11:36:36;511.27;;;369.00;;
8407;SDS011;4241;48.452;9.216;2023-07-20T11:39:03;512.53;;;372.07;;
8407;SDS011;4241;48.452;9.216;2023-07-20T11:41:32;511.67;;;368.73;;
8407;SDS011;4241;48.452;9.216;2023-07-20T11:44:01;512.07;;;375.17;;
8407;SDS011;4241;48.452;9.216;2023-07-20T11:46:28;514.40;;;379.77;;
8407;SDS011;4241;48.452;9.216;2023-07-20T11:48:56;515.60;;;382.10;;
8407;SDS011;4241;48.452;9.216;2023-07-20T11:51:24;512.93;;;382.57;;
8407;SDS011;4241;48.452;9.216;2023-07-20T11:53:52;512.17;;;387.03;;
8407;SDS011;4241;48.452;9.216;2023-07-20T11:56:19;516.57;;;392.17;;
8407;SDS011;4241;48.452;9.216;2023-07-20T11:58:46;513.23;;;390.27;;
8407;SDS011;4241;48.452;9.216;2023-07-20T12:01:14;512.60;;;393.03;;
8407;SDS011;4241;48.452;9.216;2023-07-20T12:03:42;514.00;;;397.27;;
8407;SDS011;4241;48.452;9.216;2023-07-20T12:06:09;519.87;;;407.97;;
8407;SDS011;4241;48.452;9.216;2023-07-20T12:08:40;515.20;;;403.20;;
8407;SDS011;4241;48.452;9.216;2023-07-20T12:11:08;515.30;;;403.30;;
8407;SDS011;4241;48.452;9.216;2023-07-20T12:13:35;513.97;;;398.53;;
8407;SDS011;4241;48.452;9.216;2023-07-20T12:16:09;514.00;;;400.27;;
8407;SDS011;4241;48.452;9.216;2023-07-20T12:18:39;513.90;;;397.47;;
8407;SDS011;4241;48.452;9.216;2023-07-20T12:21:06;512.37;;;390.63;;
8407;SDS011;4241;48.452;9.216;2023-07-20T12:23:37;512.33;;;386.70;;
8407;SDS011;4241;48.452;9.216;2023-07-20T12:26:08;512.97;;;384.73;;
8407;SDS011;4241;48.452;9.216;2023-07-20T12:28:38;514.17;;;386.20;;
8407;SDS011;4241;48.452;9.216;2023-07-20T12:31:07;511.27;;;383.10;;
8407;SDS011;4241;48.452;9.216;2023-07-20T12:33:34;511.53;;;386.27;;
8407;SDS011;4241;48.452;9.216;2023-07-20T12:36:03;514.07;;;393.83;;
8407;SDS011;4241;48.452;9.216;2023-07-20T12:38:31;514.60;;;401.80;;
8407;SDS011;4241;48.452;9.216;2023-07-20T12:41:00;512.57;;;394.63;;
8407;SDS011;4241;48.452;9.216;2023-07-20T12:43:27;519.33;;;404.13;;
8407;SDS011;4241;48.452;9.216;2023-07-20T12:45:54;513.50;;;399.07;;
8407;SDS011;4241;48.452;9.216;2023-07-20T12:48:22;513.57;;;400.27;;
8407;SDS011;4241;48.452;9.216;2023-07-20T12:50:48;512.77;;;399.93;;
8407;SDS011;4241;48.452;9.216;2023-07-20T12:53:17;514.63;;;403.57;;
8407;SDS011;4241;48.452;9.216;2023-07-20T12:55:44;517.83;;;410.10;;
8407;SDS011;4241;48.452;9.216;2023-07-20T12:58:11;515.63;;;405.00;;
8407;SDS011;4241;48.452;9.216;2023-07-20T13:00:38;514.67;;;407.83;;
8407;SDS011;4241;48.452;9.216;2023-07-20T13:03:05;514.40;;;408.70;;
8407;SDS011;4241;48.452;9.216;2023-07-20T13:05:33;515.37;;;407.20;;
8407;SDS011;4241;48.452;9.216;2023-07-20T13:08:01;517.50;;;414.63;;
8407;SDS011;4241;48.452;9.216;2023-07-20T13:10:29;516.87;;;411.97;;
8407;SDS011;4241;48.452;9.216;2023-07-20T13:12:56;514.40;;;413.70;;
8407;SDS011;4241;48.452;9.216;2023-07-20T13:15:24;516.43;;;416.47;;
8407;SDS011;4241;48.452;9.216;2023-07-20T13:17:56;516.57;;;415.37;;
8407;SDS011;4241;48.452;9.216;2023-07-20T13:20:23;517.07;;;419.03;;
8407;SDS011;4241;48.452;9.216;2023-07-20T13:22:51;518.13;;;417.23;;
8407;SDS011;4241;48.452;9.216;2023-07-20T13:25:18;518.73;;;418.57;;
8407;SDS011;4241;48.452;9.216;2023-07-20T13:27:46;516.10;;;416.73;;
8407;SDS011;4241;48.452;9.216;2023-07-20T13:30:13;514.90;;;409.47;;
8407;SDS011;4241;48.452;9.216;2023-07-20T13:32:41;516.10;;;412.30;;
8407;SDS011;4241;48.452;9.216;2023-07-20T13:35:08;517.47;;;415.23;;
8407;SDS011;4241;48.452;9.216;2023-07-20T13:37:35;516.27;;;404.50;;
8407;SDS011;4241;48.452;9.216;2023-07-20T13:40:02;513.83;;;403.43;;
8407;SDS011;4241;48.452;9.216;2023-07-20T13:42:30;514.47;;;403.27;;
8407;SDS011;4241;48.452;9.216;2023-07-20T13:44:58;517.10;;;403.83;;
8407;SDS011;4241;48.452;9.216;2023-07-20T13:47:25;516.40;;;402.33;;
8407;SDS011;4241;48.452;9.216;2023-07-20T13:49:53;513.73;;;396.10;;
8407;SDS011;4241;48.452;9.216;2023-07-20T13:52:21;514.63;;;397.63;;
8407;SDS011;4241;48.452;9.216;2023-07-20T13:54:47;513.50;;;397.03;;
8407;SDS011;4241;48.452;9.216;2023-07-20T13:57:14;514.63;;;400.00;;
8407;SDS011;4241;48.452;9.216;2023-07-20T13:59:41;512.87;;;397.63;;
8407;SDS011;4241;48.452;9.216;2023-07-20T14:02:09;512.53;;;395.40;;
8407;SDS011;4241;48.452;9.216;2023-07-20T14:04:36;511.50;;;398.07;;
8407;SDS011;4241;48.452;9.216;2023-07-20T14:07:03;512.83;;;393.73;;
8407;SDS011;4241;48.452;9.216;2023-07-20T14:09:30;511.60;;;393.80;;
8407;SDS011;4241;48.452;9.216;2023-07-20T14:11:57;513.23;;;390.63;;
8407;SDS011;4241;48.452;9.216;2023-07-20T14:14:24;512.43;;;389.50;;
8407;SDS011;4241;48.452;9.216;2023-07-20T14:16:51;511.97;;;392.00;;
8407;SDS011;4241;48.452;9.216;2023-07-20T14:19:19;511.87;;;390.57;;
8407;SDS011;4241;48.452;9.216;2023-07-20T14:21:46;516.83;;;397.37;;
8407;SDS011;4241;48.452;9.216;2023-07-20T14:24:13;511.23;;;392.67;;
8407;SDS011;4241;48.452;9.216;2023-07-20T14:26:40;510.93;;;394.60;;
8407;SDS011;4241;48.452;9.216;2023-07-20T14:29:07;516.17;;;400.17;;